sensor_id;sensor_type;location;lat;lon;timestamp;pressure;altitude;pressure_sealevel;temperature;humidity
32873;BME280;19224;52.462;16.898;2024-03-07T00:01:07;101380.41;;;3.56;100.00
32873;BME280;19224;52.462;16.898;2024-03-07T00:03:37;101387.93;;;3.57;100.00
32873;BME280;19224;52.462;16.898;2024-03-07T00:06:10;101381.71;;;3.50;100.00
32873;BME280;19224;52.462;16.898;2024-03-07T00:08:40;101381.71;;;3.50;100.00
32873;BME280;19224;52.462;16.898;2024-03-07T00:11:11;101382.17;;;3.45;100.00
32873;BME280;19224;52.462;16.898;2024-03-07T00:13:41;101381.28;;;3.46;100.00
32873;BME280;19224;52.462;16.898;2024-03-07T00:16:11;101383.05;;;3.47;100.00
32873;BME280;19224;52.462;16.898;2024-03-07T00:18:42;101382.17;;;3.45;100.00
32873;BME280;19224;52.462;16.898;2024-03-07T00:21:12;101375.92;;;3.43;100.00
32873;BME280;19224;52.462;16.898;2024-03-07T00:23:43;101381.26;;;3.40;100.00
32873;BME280;19224;52.462;16.898;2024-03-07T00:26:13;101382.14;;;3.32;100.00
32873;BME280;19224;52.462;16.898;2024-03-07T00:28:44;101379.03;;;3.23;100.00
32873;BME280;19224;52.462;16.898;2024-03-07T00:31:14;101382.58;;;3.22;100.00
32873;BME280;19224;52.462;16.898;2024-03-07T00:33:45;101380.78;;;3.15;100.00
32873;BME280;19224;52.462;16.898;2024-03-07T00:36:16;101383.00;;;3.11;100.00
32873;BME280;19224;52.462;16.898;2024-03-07T00:38:46;101381.22;;;3.19;100.00
32873;BME280;19224;52.462;16.898;2024-03-07T00:41:16;101383.00;;;3.22;100.00
32873;BME280;19224;52.462;16.898;2024-03-07T00:43:47;101379.89;;;3.16;100.00
32873;BME280;19224;52.462;16.898;2024-03-07T00:46:17;101375.47;;;3.17;100.00
32873;BME280;19224;52.462;16.898;2024-03-07T00:48:48;101378.59;;;3.22;100.00
32873;BME280;19224;52.462;16.898;2024-03-07T00:51:19;101378.59;;;3.22;100.00
32873;BME280;19224;52.462;16.898;2024-03-07T00:53:49;101376.81;;;3.24;100.00
32873;BME280;19224;52.462;16.898;2024-03-07T00:56:20;101380.80;;;3.24;100.00
32873;BME280;19224;52.462;16.898;2024-03-07T00:58:53;101378.11;;;3.15;100.00
32873;BME280;19224;52.462;16.898;2024-03-07T01:01:24;101380.78;;;3.12;100.00
32873;BME280;19224;52.462;16.898;2024-03-07T01:03:54;101381.64;;;3.05;100.00
32873;BME280;19224;52.462;16.898;2024-03-07T01:06:25;101376.28;;;2.99;100.00
32873;BME280;19224;52.462;16.898;2024-03-07T01:08:55;101368.28;;;2.89;100.00
32873;BME280;19224;52.462;16.898;2024-03-07T01:11:27;101378.50;;;2.95;100.00
32873;BME280;19224;52.462;16.898;2024-03-07T01:13:58;101375.39;;;2.91;100.00
32873;BME280;19224;52.462;16.898;2024-03-07T01:16:28;101375.84;;;2.92;100.00
32873;BME280;19224;52.462;16.898;2024-03-07T01:18:59;101367.86;;;2.95;100.00
32873;BME280;19224;52.462;16.898;2024-03-07T01:21:29;101374.55;;;3.06;100.00
32873;BME280;19224;52.462;16.898;2024-03-07T01:24:04;101373.21;;;3.04;100.00
32873;BME280;19224;52.462;16.898;2024-03-07T01:26:35;101370.56;;;3.15;100.00
32873;BME280;19224;52.462;16.898;2024-03-07T01:29:05;101376.33;;;3.16;100.00
32873;BME280;19224;52.462;16.898;2024-03-07T01:31:36;101378.14;;;3.24;100.00
32873;BME280;19224;52.462;16.898;2024-03-07T01:34:06;101376.80;;;3.27;100.00
32873;BME280;19224;52.462;16.898;2024-03-07T01:36:36;101374.16;;;3.32;100.00
32873;BME280;19224;52.462;16.898;2024-03-07T01:39:06;101375.47;;;3.27;100.00
32873;BME280;19224;52.462;16.898;2024-03-07T01:41:36;101380.36;;;3.23;100.00
32873;BME280;19224;52.462;16.898;2024-03-07T01:44:07;101375.92;;;3.33;100.00
32873;BME280;19224;52.462;16.898;2024-03-07T01:46:37;101372.83;;;3.36;100.00
32873;BME280;19224;52.462;16.898;2024-03-07T01:49:08;101379.48;;;3.36;100.00
32873;BME280;19224;52.462;16.898;2024-03-07T01:51:39;101376.81;;;3.35;100.00
32873;BME280;19224;52.462;16.898;2024-03-07T01:54:11;101377.27;;;3.37;100.00
32873;BME280;19224;52.462;16.898;2024-03-07T01:56:41;101378.16;;;3.44;100.00
32873;BME280;19224;52.462;16.898;2024-03-07T01:59:13;101381.27;;;3.42;100.00
32873;BME280;19224;52.462;16.898;2024-03-07T02:01:45;101379.49;;;3.33;100.00
32873;BME280;19224;52.462;16.898;2024-03-07T02:04:16;101375.50;;;3.33;100.00
32873;BME280;19224;52.462;16.898;2024-03-07T02:06:47;101371.95;;;3.37;100.00
32873;BME280;19224;52.462;16.898;2024-03-07T02:09:17;101377.71;;;3.28;100.00
32873;BME280;19224;52.462;16.898;2024-03-07T02:11:49;101377.69;;;3.29;100.00
32873;BME280;19224;52.462;16.898;2024-03-07T02:14:19;101379.89;;;3.19;100.00
32873;BME280;19224;52.462;16.898;2024-03-07T02:16:49;101375.02;;;3.25;100.00
32873;BME280;19224;52.462;16.898;2024-03-07T02:19:21;101373.25;;;3.28;100.00
32873;BME280;19224;52.462;16.898;2024-03-07T02:21:53;101379.91;;;3.22;100.00
32873;BME280;19224;52.462;16.898;2024-03-07T02:24:23;101383.88;;;3.19;100.00
32873;BME280;19224;52.462;16.898;2024-03-07T02:26:54;101377.66;;;3.16;100.00
32873;BME280;19224;52.462;16.898;2024-03-07T02:29:24;101385.66;;;3.11;100.00
32873;BME280;19224;52.462;16.898;2024-03-07T02:31:54;101380.30;;;3.08;100.00
32873;BME280;19224;52.462;16.898;2024-03-07T02:34:25;101375.42;;;3.06;100.00
32873;BME280;19224;52.462;16.898;2024-03-07T02:36:56;101380.28;;;3.04;100.00
32873;BME280;19224;52.462;16.898;2024-03-07T02:39:26;101378.95;;;3.01;100.00
32873;BME280;19224;52.462;16.898;2024-03-07T02:41:56;101376.76;;;3.00;100.00
32873;BME280;19224;52.462;16.898;2024-03-07T02:44:26;101379.41;;;2.99;100.00
32873;BME280;19224;52.462;16.898;2024-03-07T02:46:57;101386.50;;;2.97;100.00
32873;BME280;19224;52.462;16.898;2024-03-07T02:49:28;101387.36;;;2.91;100.00
32873;BME280;19224;52.462;16.898;2024-03-07T02:51:58;101382.89;;;2.81;100.00
32873;BME280;19224;52.462;16.898;2024-03-07T02:54:28;101384.62;;;2.76;100.00
32873;BME280;19224;52.462;16.898;2024-03-07T02:57:01;101389.47;;;2.65;100.00
32873;BME280;19224;52.462;16.898;2024-03-07T02:59:31;101386.80;;;2.60;100.00
32873;BME280;19224;52.462;16.898;2024-03-07T03:02:01;101385.91;;;2.61;100.00
32873;BME280;19224;52.462;16.898;2024-03-07T03:04:32;101391.66;;;2.59;100.00
32873;BME280;19224;52.462;16.898;2024-03-07T03:07:02;101389.00;;;2.59;100.00
32873;BME280;19224;52.462;16.898;2024-03-07T03:09:32;101384.16;;;2.62;100.00
32873;BME280;19224;52.462;16.898;2024-03-07T03:12:02;101381.91;;;2.58;100.00
32873;BME280;19224;52.462;16.898;2024-03-07T03:14:33;101387.62;;;2.53;100.00
32873;BME280;19224;52.462;16.898;2024-03-07T03:17:04;101390.70;;;2.47;100.00
32873;BME280;19224;52.462;16.898;2024-03-07T03:19:34;101389.84;;;2.46;100.00
32873;BME280;19224;52.462;16.898;2024-03-07T03:22:05;101385.36;;;2.42;100.00
32873;BME280;19224;52.462;16.898;2024-03-07T03:24:37;101395.99;;;2.42;100.00
32873;BME280;19224;52.462;16.898;2024-03-07T03:27:09;101389.34;;;2.39;100.00
32873;BME280;19224;52.462;16.898;2024-03-07T03:29:40;101387.56;;;2.35;100.00
32873;BME280;19224;52.462;16.898;2024-03-07T03:32:12;101390.67;;;2.39;100.00
32873;BME280;19224;52.462;16.898;2024-03-07T03:34:43;101395.98;;;2.36;100.00
32873;BME280;19224;52.462;16.898;2024-03-07T03:37:13;101392.87;;;2.35;100.00
32873;BME280;19224;52.462;16.898;2024-03-07T03:39:44;101395.06;;;2.33;100.00
32873;BME280;19224;52.462;16.898;2024-03-07T03:42:15;101396.80;;;2.27;100.00
32873;BME280;19224;52.462;16.898;2024-03-07T03:44:46;101391.94;;;2.30;100.00
32873;BME280;19224;52.462;16.898;2024-03-07T03:47:16;101388.84;;;2.32;100.00
32873;BME280;19224;52.462;16.898;2024-03-07T03:49:46;101386.63;;;2.30;100.00
32873;BME280;19224;52.462;16.898;2024-03-07T03:52:16;101390.58;;;2.26;100.00
32873;BME280;19224;52.462;16.898;2024-03-07T03:54:47;101387.95;;;2.28;100.00
32873;BME280;19224;52.462;16.898;2024-03-07T03:57:18;101384.42;;;2.30;100.00
32873;BME280;19224;52.462;16.898;2024-03-07T03:59:49;101385.23;;;2.22;100.00
32873;BME280;19224;52.462;16.898;2024-03-07T04:02:20;101385.70;;;2.21;100.00
32873;BME280;19224;52.462;16.898;2024-03-07T04:04:53;101390.53;;;2.16;100.00
32873;BME280;19224;52.462;16.898;2024-03-07T04:07:23;101383.38;;;2.06;100.00
32873;BME280;19224;52.462;16.898;2024-03-07T04:09:53;101387.84;;;2.11;100.00
32873;BME280;19224;52.462;16.898;2024-03-07T04:12:24;101389.58;;;2.08;100.00
32873;BME280;19224;52.462;16.898;2024-03-07T04:14:56;101385.59;;;2.05;100.00
32873;BME280;19224;52.462;16.898;2024-03-07T04:17:26;101392.23;;;2.05;100.00
32873;BME280;19224;52.462;16.898;2024-03-07T04:19:57;101384.72;;;2.09;100.00
32873;BME280;19224;52.462;16.898;2024-03-07T04:22:28;101393.95;;;2.00;100.00
32873;BME280;19224;52.462;16.898;2024-03-07T04:24:58;101387.72;;;1.92;100.00
32873;BME280;19224;52.462;16.898;2024-03-07T04:27:30;101389.84;;;1.82;100.00
32873;BME280;19224;52.462;16.898;2024-03-07T04:30:01;101388.59;;;1.91;100.00
32873;BME280;19224;52.462;16.898;2024-03-07T04:32:34;101394.30;;;1.89;100.00
32873;BME280;19224;52.462;16.898;2024-03-07T04:35:05;101395.63;;;1.86;100.00
32873;BME280;19224;52.462;16.898;2024-03-07T04:37:37;101388.01;;;1.75;100.00
32873;BME280;19224;52.462;16.898;2024-03-07T04:40:10;101395.96;;;1.72;100.00
32873;BME280;19224;52.462;16.898;2024-03-07T04:42:48;101392.81;;;1.66;100.00
32873;BME280;19224;52.462;16.898;2024-03-07T04:45:20;101386.14;;;1.62;100.00
32873;BME280;19224;52.462;16.898;2024-03-07T04:47:51;101387.94;;;1.64;100.00
32873;BME280;19224;52.462;16.898;2024-03-07T04:50:21;101392.84;;;1.68;100.00
32873;BME280;19224;52.462;16.898;2024-03-07T04:52:52;101387.50;;;1.66;100.00
32873;BME280;19224;52.462;16.898;2024-03-07T04:55:23;101392.81;;;1.66;100.00
32873;BME280;19224;52.462;16.898;2024-03-07T04:57:53;101386.63;;;1.67;100.00
32873;BME280;19224;52.462;16.898;2024-03-07T05:00:23;101384.38;;;1.64;100.00
32873;BME280;19224;52.462;16.898;2024-03-07T05:02:54;101383.08;;;1.65;100.00
32873;BME280;19224;52.462;16.898;2024-03-07T05:05:25;101389.25;;;1.66;100.00
32873;BME280;19224;52.462;16.898;2024-03-07T05:07:55;101383.94;;;1.61;100.00
32873;BME280;19224;52.462;16.898;2024-03-07T05:10:26;101385.73;;;1.65;100.00
32873;BME280;19224;52.462;16.898;2024-03-07T05:12:58;101387.47;;;1.62;100.00
32873;BME280;19224;52.462;16.898;2024-03-07T05:15:28;101387.44;;;1.56;100.00
32873;BME280;19224;52.462;16.898;2024-03-07T05:18:00;101394.42;;;1.48;100.00
32873;BME280;19224;52.462;16.898;2024-03-07T05:20:31;101388.22;;;1.47;100.00
32873;BME280;19224;52.462;16.898;2024-03-07T05:23:01;101395.25;;;1.44;100.00
32873;BME280;19224;52.462;16.898;2024-03-07T05:25:33;101391.75;;;1.45;100.00
32873;BME280;19224;52.462;16.898;2024-03-07T05:28:03;101394.45;;;1.51;100.00
32873;BME280;19224;52.462;16.898;2024-03-07T05:30:34;101395.39;;;1.57;100.00
32873;BME280;19224;52.462;16.898;2024-03-07T05:33:05;101392.23;;;1.52;100.00
32873;BME280;19224;52.462;16.898;2024-03-07T05:35:35;101406.82;;;1.49;100.00
32873;BME280;19224;52.462;16.898;2024-03-07T05:38:06;101404.63;;;1.53;100.00
32873;BME280;19224;52.462;16.898;2024-03-07T05:40:36;101405.03;;;1.49;100.00
32873;BME280;19224;52.462;16.898;2024-03-07T05:43:07;101413.05;;;1.54;100.00
32873;BME280;19224;52.462;16.898;2024-03-07T05:45:40;101410.46;;;1.60;100.00
32873;BME280;19224;52.462;16.898;2024-03-07T05:48:15;101417.09;;;1.60;100.00
32873;BME280;19224;52.462;16.898;2024-03-07T05:50:45;101421.05;;;1.58;100.00
32873;BME280;19224;52.462;16.898;2024-03-07T05:53:16;101426.31;;;1.54;100.00
32873;BME280;19224;52.462;16.898;2024-03-07T05:55:47;101432.08;;;1.55;100.00
32873;BME280;19224;52.462;16.898;2024-03-07T05:58:17;101425.40;;;1.49;100.00
32873;BME280;19224;52.462;16.898;2024-03-07T06:00:49;101429.95;;;1.65;100.00
32873;BME280;19224;52.462;16.898;2024-03-07T06:03:20;101426.42;;;1.66;100.00
32873;BME280;19224;52.462;16.898;2024-03-07T06:05:50;101430.97;;;1.77;100.00
32873;BME280;19224;52.462;16.898;2024-03-07T06:08:21;101429.73;;;1.89;100.00
32873;BME280;19224;52.462;16.898;2024-03-07T06:10:52;101430.59;;;1.87;100.00
32873;BME280;19224;52.462;16.898;2024-03-07T06:13:22;101431.98;;;1.93;100.00
32873;BME280;19224;52.462;16.898;2024-03-07T06:15:53;101434.19;;;1.92;100.00
32873;BME280;19224;52.462;16.898;2024-03-07T06:18:23;101439.50;;;1.93;100.00
32873;BME280;19224;52.462;16.898;2024-03-07T06:20:53;101438.22;;;1.96;100.00
32873;BME280;19224;52.462;16.898;2024-03-07T06:23:24;101440.05;;;2.05;100.00
32873;BME280;19224;52.462;16.898;2024-03-07T06:26:02;101442.73;;;2.09;100.00
32873;BME280;19224;52.462;16.898;2024-03-07T06:28:29;101443.67;;;2.16;100.00
32873;BME280;19224;52.462;16.898;2024-03-07T06:30:59;101446.35;;;2.22;100.00
32873;BME280;19224;52.462;16.898;2024-03-07T06:33:31;101450.35;;;2.20;100.00
32873;BME280;19224;52.462;16.898;2024-03-07T06:36:02;101443.73;;;2.26;100.00
32873;BME280;19224;52.462;16.898;2024-03-07T06:38:33;101446.44;;;2.29;100.00
32873;BME280;19224;52.462;16.898;2024-03-07T06:41:03;101449.14;;;2.36;100.00
32873;BME280;19224;52.462;16.898;2024-03-07T06:43:33;101456.23;;;2.40;100.00
32873;BME280;19224;52.462;16.898;2024-03-07T06:46:07;101455.81;;;2.41;100.00
32873;BME280;19224;52.462;16.898;2024-03-07T06:48:38;101460.29;;;2.49;100.00
32873;BME280;19224;52.462;16.898;2024-03-07T06:51:10;101453.66;;;2.52;100.00
32873;BME280;19224;52.462;16.898;2024-03-07T06:53:47;101455.00;;;2.51;100.00
32873;BME280;19224;52.462;16.898;2024-03-07T06:56:27;101459.47;;;2.59;100.00
32873;BME280;19224;52.462;16.898;2024-03-07T06:58:59;101461.28;;;2.71;100.00
32873;BME280;19224;52.462;16.898;2024-03-07T07:01:32;101468.01;;;2.81;100.00
32873;BME280;19224;52.462;16.898;2024-03-07T07:04:03;101466.69;;;2.84;100.00
32873;BME280;19224;52.462;16.898;2024-03-07T07:06:35;101467.12;;;2.79;100.00
32873;BME280;19224;52.462;16.898;2024-03-07T07:09:05;101471.09;;;2.81;100.00
32873;BME280;19224;52.462;16.898;2024-03-07T07:11:37;101468.95;;;2.95;100.00
32873;BME280;19224;52.462;16.898;2024-03-07T07:14:07;101467.67;;;3.07;100.00
32873;BME280;19224;52.462;16.898;2024-03-07T07:16:43;101466.83;;;3.11;100.00
32873;BME280;19224;52.462;16.898;2024-03-07T07:19:11;101468.56;;;3.09;100.00
32873;BME280;19224;52.462;16.898;2024-03-07T07:21:42;101472.19;;;3.23;100.00
32873;BME280;19224;52.462;16.898;2024-03-07T07:24:12;101469.12;;;3.37;100.00
32873;BME280;19224;52.462;16.898;2024-03-07T07:26:45;101467.34;;;3.36;100.00
32873;BME280;19224;52.462;16.898;2024-03-07T07:29:17;101470.45;;;3.43;100.00
32873;BME280;19224;52.462;16.898;2024-03-07T07:31:48;101473.60;;;3.52;100.00
32873;BME280;19224;52.462;16.898;2024-03-07T07:34:19;101470.92;;;3.47;100.00
32873;BME280;19224;52.462;16.898;2024-03-07T07:36:53;101469.20;;;3.75;100.00
32873;BME280;19224;52.462;16.898;2024-03-07T07:39:28;101466.97;;;3.74;100.00
32873;BME280;19224;52.462;16.898;2024-03-07T07:41:59;101470.52;;;3.76;99.18
32873;BME280;19224;52.462;16.898;2024-03-07T07:44:29;101463.44;;;3.93;98.88
32873;BME280;19224;52.462;16.898;2024-03-07T07:47:00;101460.78;;;3.95;97.95
32873;BME280;19224;52.462;16.898;2024-03-07T07:49:32;101465.67;;;4.09;97.88
32873;BME280;19224;52.462;16.898;2024-03-07T07:52:05;101471.44;;;4.14;97.02
32873;BME280;19224;52.462;16.898;2024-03-07T07:54:43;101458.09;;;4.20;95.38
32873;BME280;19224;52.462;16.898;2024-03-07T07:57:15;101465.19;;;4.33;95.06
32873;BME280;19224;52.462;16.898;2024-03-07T07:59:45;101464.75;;;4.38;94.35
32873;BME280;19224;52.462;16.898;2024-03-07T08:02:20;101465.16;;;4.56;94.67
32873;BME280;19224;52.462;16.898;2024-03-07T08:04:51;101468.69;;;4.65;91.26
32873;BME280;19224;52.462;16.898;2024-03-07T08:07:22;101466.50;;;4.62;89.14
32873;BME280;19224;52.462;16.898;2024-03-07T08:09:54;101470.92;;;4.70;88.18
32873;BME280;19224;52.462;16.898;2024-03-07T08:12:27;101468.66;;;4.77;87.34
32873;BME280;19224;52.462;16.898;2024-03-07T08:15:02;101468.65;;;4.83;86.23
32873;BME280;19224;52.462;16.898;2024-03-07T08:17:34;101467.75;;;4.84;86.01
32873;BME280;19224;52.462;16.898;2024-03-07T08:22:43;101469.02;;;5.11;89.23
32873;BME280;19224;52.462;16.898;2024-03-07T08:25:17;101465.36;;;5.27;87.31
32873;BME280;19224;52.462;16.898;2024-03-07T08:27:53;101470.30;;;5.17;83.42
32873;BME280;19224;52.462;16.898;2024-03-07T08:30:25;101472.94;;;5.26;82.45
32873;BME280;19224;52.462;16.898;2024-03-07T08:33:00;101467.56;;;5.27;82.63
32873;BME280;19224;52.462;16.898;2024-03-07T08:38:09;101469.80;;;5.28;81.77
32873;BME280;19224;52.462;16.898;2024-03-07T08:40:41;101478.69;;;5.30;81.89
32873;BME280;19224;52.462;16.898;2024-03-07T08:43:11;101469.64;;;5.55;81.94
32873;BME280;19224;52.462;16.898;2024-03-07T08:45:41;101476.72;;;5.68;81.88
32873;BME280;19224;52.462;16.898;2024-03-07T08:48:11;101472.30;;;5.59;77.96
32873;BME280;19224;52.462;16.898;2024-03-07T08:50:42;101479.48;;;5.50;76.73
32873;BME280;19224;52.462;16.898;2024-03-07T08:53:16;101474.55;;;5.54;76.13
32873;BME280;19224;52.462;16.898;2024-03-07T08:55:47;101479.44;;;5.59;75.62
32873;BME280;19224;52.462;16.898;2024-03-07T08:58:19;101481.13;;;5.72;74.80
32873;BME280;19224;52.462;16.898;2024-03-07T09:00:50;101481.14;;;5.73;74.06
32873;BME280;19224;52.462;16.898;2024-03-07T09:03:21;101474.90;;;5.79;73.48
32873;BME280;19224;52.462;16.898;2024-03-07T09:05:53;101473.53;;;5.80;73.63
32873;BME280;19224;52.462;16.898;2024-03-07T09:08:30;101478.48;;;5.69;72.92
32873;BME280;19224;52.462;16.898;2024-03-07T09:11:00;101476.28;;;5.64;73.40
32873;BME280;19224;52.462;16.898;2024-03-07T09:13:30;101470.85;;;5.76;73.56
32873;BME280;19224;52.462;16.898;2024-03-07T09:16:00;101468.64;;;5.74;72.40
32873;BME280;19224;52.462;16.898;2024-03-07T09:18:34;101472.98;;;5.97;72.47
32873;BME280;19224;52.462;16.898;2024-03-07T09:21:05;101474.62;;;6.15;73.59
32873;BME280;19224;52.462;16.898;2024-03-07T09:23:35;101470.17;;;6.14;72.45
32873;BME280;19224;52.462;16.898;2024-03-07T09:26:05;101468.94;;;6.02;71.30
32873;BME280;19224;52.462;16.898;2024-03-07T09:28:36;101472.41;;;6.13;71.35
32873;BME280;19224;52.462;16.898;2024-03-07T09:31:06;101464.82;;;6.14;70.88
32873;BME280;19224;52.462;16.898;2024-03-07T09:33:38;101467.97;;;6.10;70.88
32873;BME280;19224;52.462;16.898;2024-03-07T09:36:09;101475.41;;;6.26;71.32
32873;BME280;19224;52.462;16.898;2024-03-07T09:38:39;101467.67;;;6.42;72.24
32873;BME280;19224;52.462;16.898;2024-03-07T09:41:09;101466.38;;;6.39;70.20
32873;BME280;19224;52.462;16.898;2024-03-07T09:43:40;101462.80;;;6.41;70.79
32873;BME280;19224;52.462;16.898;2024-03-07T09:46:14;101463.66;;;6.42;70.54
32873;BME280;19224;52.462;16.898;2024-03-07T09:48:47;101459.72;;;6.33;71.29
32873;BME280;19224;52.462;16.898;2024-03-07T09:51:21;101466.45;;;6.30;70.57
32873;BME280;19224;52.462;16.898;2024-03-07T09:53:59;101462.41;;;6.33;70.75
32873;BME280;19224;52.462;16.898;2024-03-07T09:56:29;101464.56;;;6.41;70.67
32873;BME280;19224;52.462;16.898;2024-03-07T09:59:06;101465.70;;;6.62;71.38
32873;BME280;19224;52.462;16.898;2024-03-07T10:01:44;101462.80;;;6.83;70.38
32873;BME280;19224;52.462;16.898;2024-03-07T10:04:13;101467.89;;;6.67;68.14
32873;BME280;19224;52.462;16.898;2024-03-07T10:06:49;101465.60;;;6.72;68.49
32873;BME280;19224;52.462;16.898;2024-03-07T10:09:22;101456.48;;;6.90;68.92
32873;BME280;19224;52.462;16.898;2024-03-07T10:11:59;101459.97;;;6.96;66.95
32873;BME280;19224;52.462;16.898;2024-03-07T10:14:35;101446.96;;;7.02;67.15
32873;BME280;19224;52.462;16.898;2024-03-07T10:17:06;101455.42;;;7.03;66.00
32873;BME280;19224;52.462;16.898;2024-03-07T10:19:38;101454.42;;;7.09;65.40
32873;BME280;19224;52.462;16.898;2024-03-07T10:22:10;101455.17;;;7.20;66.00
32873;BME280;19224;52.462;16.898;2024-03-07T10:24:49;101453.67;;;7.34;65.91
32873;BME280;19224;52.462;16.898;2024-03-07T10:27:13;101448.47;;;7.23;65.26
32873;BME280;19224;52.462;16.898;2024-03-07T10:29:43;101445.84;;;7.17;62.00
32873;BME280;19224;52.462;16.898;2024-03-07T10:32:19;101439.25;;;7.11;62.86
32873;BME280;19224;52.462;16.898;2024-03-07T10:34:54;101450.20;;;7.26;64.18
32873;BME280;19224;52.462;16.898;2024-03-07T10:37:25;101428.83;;;7.52;63.69
32873;BME280;19224;52.462;16.898;2024-03-07T10:39:59;101437.30;;;7.53;62.69
32873;BME280;19224;52.462;16.898;2024-03-07T10:42:30;101441.00;;;7.46;61.87
32873;BME280;19224;52.462;16.898;2024-03-07T10:45:05;101439.29;;;7.41;61.52
32873;BME280;19224;52.462;16.898;2024-03-07T10:47:44;101431.52;;;7.52;61.36
32873;BME280;19224;52.462;16.898;2024-03-07T10:56:26;101431.31;;;7.67;61.53
32873;BME280;19224;52.462;16.898;2024-03-07T10:59:17;101427.18;;;7.73;61.46
32873;BME280;19224;52.462;16.898;2024-03-07T11:02:23;101432.24;;;7.63;61.06
32873;BME280;19224;52.462;16.898;2024-03-07T11:04:36;101424.86;;;7.49;59.67
32873;BME280;19224;52.462;16.898;2024-03-07T11:07:08;101429.27;;;7.53;59.72
32873;BME280;19224;52.462;16.898;2024-03-07T11:09:40;101428.45;;;7.78;59.80
32873;BME280;19224;52.462;16.898;2024-03-07T11:12:14;101418.65;;;7.75;59.89
32873;BME280;19224;52.462;16.898;2024-03-07T11:14:49;101418.38;;;7.93;59.27
32873;BME280;19224;52.462;16.898;2024-03-07T11:17:22;101418.81;;;7.93;59.60
32873;BME280;19224;52.462;16.898;2024-03-07T11:19:53;101414.41;;;7.90;59.18
32873;BME280;19224;52.462;16.898;2024-03-07T11:22:30;101414.56;;;8.06;59.56
32873;BME280;19224;52.462;16.898;2024-03-07T11:25:10;101404.52;;;8.20;58.73
32873;BME280;19224;52.462;16.898;2024-03-07T11:27:41;101411.89;;;8.34;57.86
32873;BME280;19224;52.462;16.898;2024-03-07T11:30:18;101403.78;;;8.36;57.97
32873;BME280;19224;52.462;16.898;2024-03-07T11:32:52;101400.92;;;8.46;58.12
32873;BME280;19224;52.462;16.898;2024-03-07T11:35:36;101398.03;;;8.55;57.11
32873;BME280;19224;52.462;16.898;2024-03-07T11:38:09;101403.30;;;8.61;56.54
32873;BME280;19224;52.462;16.898;2024-03-07T11:40:43;101398.10;;;8.76;56.63
32873;BME280;19224;52.462;16.898;2024-03-07T11:43:14;101393.91;;;8.83;56.46
32873;BME280;19224;52.462;16.898;2024-03-07T11:45:44;101388.22;;;8.76;55.74
32873;BME280;19224;52.462;16.898;2024-03-07T11:48:22;101390.61;;;8.47;55.73
32873;BME280;19224;52.462;16.898;2024-03-07T11:50:52;101393.48;;;8.60;56.62
32873;BME280;19224;52.462;16.898;2024-03-07T11:53:24;101393.55;;;8.79;56.49
32873;BME280;19224;52.462;16.898;2024-03-07T11:55:54;101383.09;;;8.86;56.55
32873;BME280;19224;52.462;16.898;2024-03-07T11:58:24;101386.92;;;8.97;56.70
32873;BME280;19224;52.462;16.898;2024-03-07T12:00:56;101381.45;;;9.01;56.23
32873;BME280;19224;52.462;16.898;2024-03-07T12:03:33;101380.45;;;9.05;54.93
32873;BME280;19224;52.462;16.898;2024-03-07T12:06:03;101373.81;;;9.02;56.05
32873;BME280;19224;52.462;16.898;2024-03-07T12:08:40;101362.28;;;9.18;56.14
32873;BME280;19224;52.462;16.898;2024-03-07T12:11:11;101364.55;;;9.17;56.06
32873;BME280;19224;52.462;16.898;2024-03-07T12:13:43;101372.44;;;9.24;56.27
32873;BME280;19224;52.462;16.898;2024-03-07T12:16:19;101369.09;;;9.32;56.21
32873;BME280;19224;52.462;16.898;2024-03-07T12:18:53;101362.37;;;9.32;56.02
32873;BME280;19224;52.462;16.898;2024-03-07T12:21:26;101366.28;;;9.38;55.95
32873;BME280;19224;52.462;16.898;2024-03-07T12:23:58;101366.11;;;9.44;56.08
32873;BME280;19224;52.462;16.898;2024-03-07T12:26:29;101360.13;;;9.33;55.41
32873;BME280;19224;52.462;16.898;2024-03-07T12:29:10;101358.13;;;9.41;55.34
32873;BME280;19224;52.462;16.898;2024-03-07T12:31:41;101356.23;;;9.46;54.51
32873;BME280;19224;52.462;16.898;2024-03-07T12:34:12;101362.54;;;9.45;54.21
32873;BME280;19224;52.462;16.898;2024-03-07T12:36:46;101358.63;;;9.39;54.28
32873;BME280;19224;52.462;16.898;2024-03-07T12:39:24;101346.58;;;9.19;53.81
32873;BME280;19224;52.462;16.898;2024-03-07T12:41:59;101351.82;;;9.04;54.34
32873;BME280;19224;52.462;16.898;2024-03-07T12:44:45;101345.64;;;8.99;55.75
32873;BME280;19224;52.462;16.898;2024-03-07T12:47:18;101348.11;;;9.10;56.18
32873;BME280;19224;52.462;16.898;2024-03-07T12:49:49;101350.38;;;9.09;53.94
32873;BME280;19224;52.462;16.898;2024-03-07T12:52:20;101345.22;;;8.98;53.77
32873;BME280;19224;52.462;16.898;2024-03-07T12:54:50;101349.55;;;9.05;54.52
32873;BME280;19224;52.462;16.898;2024-03-07T12:57:25;101348.71;;;9.03;54.70
32873;BME280;19224;52.462;16.898;2024-03-07T12:59:58;101344.41;;;9.15;54.87
32873;BME280;19224;52.462;16.898;2024-03-07T13:02:28;101343.05;;;9.17;55.23
32873;BME280;19224;52.462;16.898;2024-03-07T13:04:59;101340.40;;;9.14;54.94
32873;BME280;19224;52.462;16.898;2024-03-07T13:07:33;101345.05;;;9.26;54.97
32873;BME280;19224;52.462;16.898;2024-03-07T13:10:04;101336.49;;;9.47;53.95
32873;BME280;19224;52.462;16.898;2024-03-07T13:12:44;101340.31;;;9.37;52.77
32873;BME280;19224;52.462;16.898;2024-03-07T13:15:17;101334.06;;;9.54;53.03
32873;BME280;19224;52.462;16.898;2024-03-07T13:17:49;101331.27;;;9.76;52.82